createdAt,value
2022-11-05T00:00:53.087Z,8.40
2022-11-05T00:03:38.664Z,8.40
2022-11-05T00:06:27.171Z,8.40
2022-11-05T00:09:29.420Z,8.50
2022-11-05T00:12:27.008Z,8.50
2022-11-05T00:15:13.027Z,8.50
2022-11-05T00:17:40.020Z,8.50
2022-11-05T00:20:13.468Z,8.50
2022-11-05T00:22:58.897Z,8.50
2022-11-05T00:25:26.368Z,8.50
2022-11-05T00:27:53.623Z,8.50
2022-11-05T00:30:25.185Z,8.50
2022-11-05T00:32:52.830Z,8.50
2022-11-05T00:35:21.610Z,8.60
2022-11-05T00:37:50.393Z,8.60
2022-11-05T00:40:17.755Z,8.60
2022-11-05T00:43:03.533Z,8.60
2022-11-05T00:45:33.548Z,8.60
2022-11-05T00:48:18.809Z,8.60
2022-11-05T00:50:46.014Z,8.60
2022-11-05T00:53:13.015Z,8.60
2022-11-05T00:55:41.987Z,8.60
2022-11-05T00:58:20.420Z,8.60
2022-11-05T01:00:59.651Z,8.70
2022-11-05T01:03:37.241Z,8.70
2022-11-05T01:06:14.399Z,8.70
2022-11-05T01:08:43.314Z,8.70
2022-11-05T01:11:33.236Z,8.70
2022-11-05T01:14:05.683Z,8.70
2022-11-05T01:16:32.519Z,8.70
2022-11-05T01:19:09.890Z,8.70
2022-11-05T01:21:37.077Z,8.70
2022-11-05T01:24:06.276Z,8.80
2022-11-05T01:26:33.047Z,8.80
2022-11-05T01:29:00.495Z,8.70
2022-11-05T01:31:28.565Z,8.80
2022-11-05T01:33:59.946Z,8.80
2022-11-05T01:36:26.793Z,8.80
2022-11-05T01:38:55.774Z,8.80
2022-11-05T01:41:24.746Z,8.80
2022-11-05T01:43:57.759Z,8.90
2022-11-05T01:46:38.170Z,9.00
2022-11-05T01:49:42.621Z,9.00
2022-11-05T01:52:09.297Z,9.00
2022-11-05T01:54:43.191Z,9.00
2022-11-05T01:57:14.714Z,9.00
2022-11-05T01:59:53.082Z,9.00
2022-11-05T02:02:25.146Z,9.00
2022-11-05T02:05:00.808Z,9.10
2022-11-05T02:07:30.974Z,9.00
2022-11-05T02:10:06.123Z,9.00
2022-11-05T02:12:36.653Z,9.00
2022-11-05T02:15:06.597Z,9.00
2022-11-05T02:17:55.114Z,8.90
2022-11-05T02:20:51.857Z,9.00
2022-11-05T02:23:27.433Z,8.90
2022-11-05T02:26:15.998Z,9.00
2022-11-05T02:28:58.576Z,9.10
2022-11-05T02:31:39.925Z,9.10
2022-11-05T02:34:11.908Z,9.20
2022-11-05T02:36:56.604Z,9.10
2022-11-05T02:39:41.428Z,9.10
2022-11-05T02:42:27.187Z,9.10
2022-11-05T02:45:03.258Z,9.10
2022-11-05T02:47:38.458Z,9.20
2022-11-05T02:50:22.154Z,9.20
2022-11-05T02:53:04.718Z,9.30
2022-11-05T02:55:47.041Z,9.30
2022-11-05T02:58:15.883Z,9.30
2022-11-05T03:00:54.874Z,9.30
2022-11-05T03:03:47.756Z,9.30
2022-11-05T03:06:43.285Z,9.30
2022-11-05T03:09:18.160Z,9.30
2022-11-05T03:12:10.452Z,9.30
2022-11-05T03:14:46.003Z,9.20
2022-11-05T03:17:17.333Z,9.20
2022-11-05T03:19:55.595Z,9.10
2022-11-05T03:22:48.968Z,9.10
2022-11-05T03:25:21.071Z,9.10
2022-11-05T03:27:52.504Z,9.10
2022-11-05T03:30:21.740Z,9.20
2022-11-05T03:32:54.772Z,9.20
2022-11-05T03:35:28.712Z,9.20
2022-11-05T03:38:05.038Z,9.20
2022-11-05T03:40:35.239Z,9.20
2022-11-05T03:43:07.317Z,9.20
2022-11-05T03:45:40.475Z,9.20
2022-11-05T03:48:12.100Z,9.20
2022-11-05T03:50:56.969Z,9.20
2022-11-05T03:53:30.791Z,9.20
2022-11-05T03:56:13.041Z,9.20
2022-11-05T03:58:45.587Z,9.30
2022-11-05T04:05:12.254Z,9.20
2022-11-05T04:08:14.217Z,9.30
2022-11-05T04:11:02.333Z,9.40
2022-11-05T04:13:32.073Z,9.30
2022-11-05T04:16:17.218Z,9.30
2022-11-05T04:18:43.951Z,9.30
2022-11-05T04:21:30.070Z,9.30
2022-11-05T04:24:10.835Z,9.30
2022-11-05T04:26:41.350Z,9.40
2022-11-05T04:29:26.891Z,9.50
2022-11-05T04:31:57.981Z,9.50
2022-11-05T04:34:24.819Z,9.50
2022-11-05T04:36:53.163Z,9.50
2022-11-05T04:39:23.263Z,9.40
2022-11-05T04:41:50.046Z,9.40
2022-11-05T04:44:17.113Z,9.40
2022-11-05T04:46:46.213Z,9.40
2022-11-05T04:49:15.066Z,9.30
2022-11-05T04:51:41.718Z,9.30
2022-11-05T04:54:08.514Z,9.30
2022-11-05T04:56:37.496Z,9.30
2022-11-05T04:59:06.547Z,9.30
2022-11-05T05:01:33.393Z,9.30
2022-11-05T05:04:02.470Z,9.30
2022-11-05T05:06:29.176Z,9.30
2022-11-05T05:08:58.372Z,9.30
2022-11-05T05:11:25.083Z,9.30
2022-11-05T05:13:51.768Z,9.30
2022-11-05T05:16:24.286Z,9.30
2022-11-05T05:18:51.485Z,9.20
2022-11-05T05:21:38.957Z,9.30
2022-11-05T05:24:08.820Z,9.30
2022-11-05T05:26:42.951Z,9.40
2022-11-05T05:29:10.572Z,9.40
2022-11-05T05:31:37.980Z,9.40
2022-11-05T05:34:10.420Z,9.30
2022-11-05T05:36:39.592Z,9.40
2022-11-05T05:39:07.793Z,9.40
2022-11-05T05:41:36.970Z,9.40
2022-11-05T05:44:06.376Z,9.40
2022-11-05T05:46:33.193Z,9.40
2022-11-05T05:49:03.037Z,9.40
2022-11-05T05:51:36.857Z,9.40
2022-11-05T05:54:08.201Z,9.40
2022-11-05T05:56:34.855Z,9.40
2022-11-05T05:59:03.648Z,9.40
2022-11-05T06:01:35.142Z,9.40
2022-11-05T06:04:02.019Z,9.30
2022-11-05T06:06:31.091Z,9.40
2022-11-05T06:08:57.838Z,9.30
2022-11-05T06:11:27.523Z,9.30
2022-11-05T06:13:56.403Z,9.30
2022-11-05T06:16:23.208Z,9.30
2022-11-05T06:18:49.873Z,9.30
2022-11-05T06:21:20.562Z,9.30
2022-11-05T06:23:49.093Z,9.30
2022-11-05T06:26:19.688Z,9.30
2022-11-05T06:28:49.349Z,9.40
2022-11-05T06:31:16.259Z,9.40
2022-11-05T06:33:47.383Z,9.40
2022-11-05T06:36:16.408Z,9.50
2022-11-05T06:38:47.695Z,9.50
2022-11-05T06:41:14.457Z,9.50
2022-11-05T06:43:45.740Z,9.50
2022-11-05T06:46:12.538Z,9.50
2022-11-05T06:48:39.283Z,9.60
2022-11-05T06:51:07.769Z,9.60
2022-11-05T06:53:38.066Z,9.60
2022-11-05T06:56:09.774Z,9.60
2022-11-05T06:58:36.818Z,9.60
2022-11-05T07:01:08.595Z,9.60
2022-11-05T07:03:38.509Z,9.60
2022-11-05T07:06:09.345Z,9.60
2022-11-05T07:08:37.695Z,9.60
2022-11-05T07:11:04.859Z,9.60
2022-11-05T07:13:31.817Z,9.70
2022-11-05T07:16:03.111Z,9.70
2022-11-05T07:18:29.789Z,9.80
2022-11-05T07:20:58.864Z,9.80
2022-11-05T07:23:25.565Z,9.90
2022-11-05T07:25:52.273Z,9.90
2022-11-05T07:28:19.008Z,9.90
2022-11-05T07:30:50.728Z,9.90
2022-11-05T07:33:17.687Z,10.00
2022-11-05T07:35:44.381Z,10.00
2022-11-05T07:38:13.498Z,9.90
2022-11-05T07:40:44.963Z,9.90
2022-11-05T07:43:14.149Z,9.90
2022-11-05T07:45:41.210Z,9.90
2022-11-05T07:48:10.148Z,9.90
2022-11-05T07:50:37.615Z,9.90
2022-11-05T07:53:07.149Z,9.90
2022-11-05T07:55:40.248Z,9.90
2022-11-05T07:58:09.423Z,9.90
2022-11-05T08:00:38.717Z,9.90
2022-11-05T08:03:18.198Z,9.90
2022-11-05T08:05:49.912Z,9.90
2022-11-05T08:08:18.930Z,9.90
2022-11-05T08:10:46.260Z,9.90
2022-11-05T08:13:18.771Z,10.00
2022-11-05T08:15:45.622Z,10.10
2022-11-05T08:18:16.658Z,10.10
2022-11-05T08:20:46.978Z,10.20
2022-11-05T08:23:14.236Z,10.20
2022-11-05T08:25:46.328Z,10.20
2022-11-05T08:28:16.275Z,10.20
2022-11-05T08:30:43.029Z,10.20
2022-11-05T08:33:12.779Z,10.20
2022-11-05T08:35:42.309Z,10.20
2022-11-05T08:38:18.589Z,10.30
2022-11-05T08:40:53.893Z,10.30
2022-11-05T08:43:21.055Z,10.40
2022-11-05T08:45:55.003Z,10.40
2022-11-05T08:48:21.881Z,10.40
2022-11-05T08:50:51.744Z,10.40
2022-11-05T08:53:18.524Z,10.40
2022-11-05T08:55:47.588Z,10.40
2022-11-05T08:58:16.863Z,10.50
2022-11-05T09:00:50.719Z,10.60
2022-11-05T09:03:19.894Z,10.60
2022-11-05T09:05:47.084Z,10.60
2022-11-05T09:08:21.150Z,10.70
2022-11-05T09:10:49.762Z,10.80
2022-11-05T09:13:20.276Z,10.80
2022-11-05T09:15:51.485Z,10.90
2022-11-05T09:18:19.384Z,10.90
2022-11-05T09:20:47.210Z,11.00
2022-11-05T09:23:19.066Z,11.00
2022-11-05T09:25:48.591Z,11.00
2022-11-05T09:28:23.708Z,11.10
2022-11-05T09:30:51.854Z,11.10
2022-11-05T09:33:23.296Z,11.20
2022-11-05T09:35:53.780Z,11.30
2022-11-05T09:38:22.958Z,11.20
2022-11-05T09:40:59.733Z,11.20
2022-11-05T09:43:48.360Z,11.20
2022-11-05T09:46:30.476Z,11.30
2022-11-05T09:49:07.527Z,11.30
2022-11-05T09:51:36.677Z,11.20
2022-11-05T09:54:06.874Z,11.30
2022-11-05T09:56:37.346Z,11.30
2022-11-05T09:59:19.006Z,11.40
2022-11-05T10:01:48.676Z,11.40
2022-11-05T10:04:24.105Z,11.50
2022-11-05T10:07:02.813Z,11.50
2022-11-05T10:09:53.767Z,11.50
2022-11-05T10:12:33.230Z,11.40
2022-11-05T10:15:31.074Z,11.20
2022-11-05T10:18:14.528Z,11.00
2022-11-05T10:20:45.515Z,10.90
2022-11-05T10:23:17.455Z,10.80
2022-11-05T10:25:53.084Z,10.70
2022-11-05T10:28:22.182Z,10.60
2022-11-05T10:30:52.537Z,10.60
2022-11-05T10:33:32.424Z,10.60
2022-11-05T10:36:07.553Z,10.60
2022-11-05T10:38:34.277Z,10.60
2022-11-05T10:41:24.411Z,10.60
2022-11-05T10:43:56.534Z,10.60
2022-11-05T10:46:45.681Z,10.60
2022-11-05T10:49:18.597Z,10.50
2022-11-05T10:51:54.592Z,10.50
2022-11-05T10:54:24.963Z,10.50
2022-11-05T10:56:54.147Z,10.50
2022-11-05T10:59:30.534Z,10.50
2022-11-05T11:02:19.753Z,10.50
2022-11-05T11:04:52.826Z,10.50
2022-11-05T11:07:25.263Z,10.50
2022-11-05T11:09:52.722Z,10.50
2022-11-05T11:12:41.078Z,10.70
2022-11-05T11:15:20.271Z,10.70
2022-11-05T11:17:51.469Z,10.80
2022-11-05T11:20:28.996Z,10.90
2022-11-05T11:23:05.485Z,11.10
2022-11-05T11:25:40.754Z,11.10
2022-11-05T11:28:17.928Z,11.00
2022-11-05T11:30:57.052Z,11.00
2022-11-05T11:33:27.639Z,11.10
2022-11-05T11:35:55.012Z,11.10
2022-11-05T11:38:28.949Z,11.10
2022-11-05T11:41:15.240Z,10.90
2022-11-05T11:43:43.627Z,10.70
2022-11-05T11:46:16.477Z,10.70
2022-11-05T11:48:48.579Z,10.60
2022-11-05T11:51:40.652Z,10.80
2022-11-05T11:54:20.358Z,10.90
2022-11-05T11:56:50.372Z,10.90
2022-11-05T11:59:46.711Z,10.80
2022-11-05T12:02:36.277Z,10.70
2022-11-05T12:05:36.359Z,10.60
2022-11-05T12:08:13.606Z,10.50
2022-11-05T12:11:25.435Z,10.40
2022-11-05T12:14:18.534Z,10.40
2022-11-05T12:17:00.915Z,10.50
2022-11-05T12:20:12.528Z,10.50
2022-11-05T12:22:48.228Z,10.50
2022-11-05T12:25:35.204Z,10.70
2022-11-05T12:28:57.708Z,10.80
2022-11-05T12:31:42.241Z,10.80
2022-11-05T12:34:36.866Z,10.90
2022-11-05T12:37:28.948Z,11.00
2022-11-05T12:40:03.951Z,11.30
2022-11-05T12:42:49.118Z,11.30
2022-11-05T12:45:22.996Z,11.30
2022-11-05T12:48:11.083Z,11.20
2022-11-05T12:50:43.051Z,11.20
2022-11-05T12:53:18.902Z,11.10
2022-11-05T12:55:51.594Z,10.90
2022-11-05T12:58:47.433Z,10.90
2022-11-05T13:01:19.863Z,10.80
2022-11-05T13:04:02.305Z,10.70
2022-11-05T13:10:24.640Z,10.80
2022-11-05T13:17:02.313Z,10.80
2022-11-05T13:20:03.623Z,10.80
2022-11-05T13:34:14.061Z,11.20
2022-11-05T13:40:29.930Z,11.00
2022-11-05T13:43:03.536Z,11.10
2022-11-05T13:45:48.480Z,11.10
2022-11-05T13:48:44.234Z,11.00
2022-11-05T13:51:25.903Z,11.00
2022-11-05T13:54:16.744Z,10.90
2022-11-05T13:57:13.742Z,10.80
2022-11-05T13:59:48.630Z,10.80
2022-11-05T14:02:26.408Z,10.70
2022-11-05T14:05:01.368Z,10.60
2022-11-05T14:07:36.850Z,10.60
2022-11-05T14:10:22.168Z,10.60
2022-11-05T14:12:53.914Z,10.60
2022-11-05T14:15:24.391Z,10.60
2022-11-05T14:18:00.008Z,10.60
2022-11-05T14:20:41.897Z,10.60
2022-11-05T14:23:19.888Z,10.60
2022-11-05T14:26:11.400Z,10.70
2022-11-05T14:28:42.265Z,10.60
2022-11-05T14:31:47.770Z,10.70
2022-11-05T14:34:41.160Z,10.60
2022-11-05T14:37:19.687Z,10.70
2022-11-05T14:39:46.489Z,10.60
2022-11-05T14:42:28.527Z,10.60
2022-11-05T14:45:00.191Z,10.70
2022-11-05T14:47:35.751Z,10.70
2022-11-05T14:50:33.388Z,10.70
2022-11-05T14:53:21.420Z,10.60
2022-11-05T14:56:17.016Z,10.60
2022-11-05T14:58:47.506Z,10.60
2022-11-05T15:01:16.409Z,10.60
2022-11-05T15:03:47.147Z,10.50
2022-11-05T15:06:28.257Z,10.50
2022-11-05T15:08:54.962Z,10.40
2022-11-05T15:11:33.387Z,10.40
2022-11-05T15:14:04.856Z,10.40
2022-11-05T15:16:35.087Z,10.30
2022-11-05T15:19:03.161Z,10.40
2022-11-05T15:21:37.591Z,10.30
2022-11-05T15:24:04.731Z,10.20
2022-11-05T15:26:43.794Z,10.20
2022-11-05T15:29:22.122Z,10.20
2022-11-05T15:31:53.150Z,10.20
2022-11-05T15:34:25.693Z,10.10
2022-11-05T15:37:00.092Z,10.10
2022-11-05T15:39:41.026Z,10.10
2022-11-05T15:42:17.299Z,10.10
2022-11-05T15:44:47.033Z,10.10
2022-11-05T15:47:34.040Z,10.00
2022-11-05T15:50:02.005Z,10.00
2022-11-05T15:52:36.295Z,9.90
2022-11-05T15:55:24.416Z,9.90
2022-11-05T15:58:02.939Z,9.90
2022-11-05T16:00:33.991Z,9.90
2022-11-05T16:03:17.961Z,9.90
2022-11-05T16:05:48.252Z,9.90
2022-11-05T16:08:21.655Z,9.80
2022-11-05T16:10:55.654Z,9.70
2022-11-05T16:13:35.738Z,9.70
2022-11-05T16:16:26.355Z,9.70
2022-11-05T16:18:55.718Z,9.60
2022-11-05T16:21:24.628Z,9.60
2022-11-05T16:23:59.118Z,9.60
2022-11-05T16:27:00.595Z,9.50
2022-11-05T16:29:20.969Z,9.60
2022-11-05T16:31:52.795Z,9.50
2022-11-05T16:34:45.325Z,9.50
2022-11-05T16:37:20.899Z,9.40
2022-11-05T16:40:18.433Z,9.40
2022-11-05T16:42:48.446Z,9.40
2022-11-05T16:45:19.519Z,9.40
2022-11-05T16:47:51.478Z,9.40
2022-11-05T16:50:28.866Z,9.30
2022-11-05T16:53:49.008Z,9.30
2022-11-05T16:56:55.477Z,9.40
2022-11-05T16:59:22.140Z,9.30
2022-11-05T17:01:53.103Z,9.30
2022-11-05T17:04:24.581Z,9.30
2022-11-05T17:06:53.862Z,9.30
2022-11-05T17:09:25.339Z,9.30
2022-11-05T17:11:56.651Z,9.20
2022-11-05T17:14:23.436Z,9.20
2022-11-05T17:16:52.708Z,9.20
2022-11-05T17:19:19.811Z,9.20
2022-11-05T17:21:50.037Z,9.10
2022-11-05T17:24:16.754Z,9.10
2022-11-05T17:26:43.532Z,9.10
2022-11-05T17:29:15.445Z,9.10
2022-11-05T17:31:44.605Z,9.00
2022-11-05T17:34:11.304Z,9.00
2022-11-05T17:36:38.017Z,9.00
2022-11-05T17:39:06.971Z,8.90
2022-11-05T17:41:35.829Z,8.90
2022-11-05T17:44:04.992Z,8.80
2022-11-05T17:46:36.608Z,8.90
2022-11-05T17:49:03.516Z,8.90
2022-11-05T17:51:34.319Z,8.80
2022-11-05T17:54:04.010Z,8.70
2022-11-05T17:56:34.955Z,8.70
2022-11-05T17:59:08.536Z,8.60
2022-11-05T18:01:43.336Z,8.50
2022-11-05T18:04:13.016Z,8.50
2022-11-05T18:06:43.712Z,8.40
2022-11-05T18:09:13.929Z,8.40
2022-11-05T18:11:45.749Z,8.40
2022-11-05T18:14:12.576Z,8.40
2022-11-05T18:16:39.453Z,8.40
2022-11-05T18:19:06.205Z,8.40
2022-11-05T18:21:35.124Z,8.30
2022-11-05T18:24:07.829Z,8.30
2022-11-05T18:26:42.038Z,8.30
2022-11-05T18:29:25.904Z,8.40
2022-11-05T18:35:23.479Z,8.50
2022-11-05T18:37:52.392Z,8.60
2022-11-05T18:40:23.749Z,8.60
2022-11-05T18:42:55.216Z,8.60
2022-11-05T18:45:29.678Z,8.60
2022-11-05T18:50:37.091Z,8.60
2022-11-05T18:51:17.957Z,8.60
2022-11-05T18:53:46.821Z,8.60
2022-11-05T18:56:18.264Z,8.60
2022-11-05T18:58:47.354Z,8.60
2022-11-05T19:01:22.087Z,8.50
2022-11-05T19:03:54.356Z,8.50
2022-11-05T19:06:24.974Z,8.40
2022-11-05T19:08:54.402Z,8.50
2022-11-05T19:11:22.844Z,8.50
2022-11-05T19:13:52.626Z,8.60
2022-11-05T19:16:21.922Z,8.60
2022-11-05T19:18:51.630Z,8.70
2022-11-05T19:21:21.693Z,8.70
2022-11-05T19:23:56.394Z,8.70
2022-11-05T19:26:28.796Z,8.60
2022-11-05T19:28:58.732Z,8.60
2022-11-05T19:31:25.699Z,8.50
2022-11-05T19:33:54.894Z,8.50
2022-11-05T19:36:23.265Z,8.40
2022-11-05T19:38:58.052Z,8.40
2022-11-05T19:41:30.181Z,8.30
2022-11-05T19:44:02.668Z,8.40
2022-11-05T19:46:29.756Z,8.40
2022-11-05T19:48:56.939Z,8.30
2022-11-05T19:51:25.006Z,8.20
2022-11-05T19:53:52.774Z,8.20
2022-11-05T19:56:20.932Z,8.20
2022-11-05T19:58:50.318Z,8.10
2022-11-05T20:01:20.515Z,8.10
2022-11-05T20:03:49.545Z,8.00
2022-11-05T20:06:20.000Z,7.90
2022-11-05T20:09:15.203Z,8.00
2022-11-05T20:11:39.292Z,7.90
2022-11-05T20:14:06.435Z,7.90
2022-11-05T20:16:38.044Z,7.80
2022-11-05T20:19:05.731Z,7.80
2022-11-05T20:21:32.733Z,7.70
2022-11-05T20:23:59.360Z,7.70
2022-11-05T20:26:28.866Z,7.70
2022-11-05T20:28:56.036Z,7.70
2022-11-05T20:31:25.096Z,7.70
2022-11-05T20:33:52.102Z,7.70
2022-11-05T20:36:20.093Z,7.60
2022-11-05T20:38:52.597Z,7.50
2022-11-05T20:41:22.029Z,7.50
2022-11-05T20:43:48.644Z,7.50
2022-11-05T20:46:16.346Z,7.50
2022-11-05T20:48:47.043Z,7.50
2022-11-05T20:51:24.169Z,7.50
2022-11-05T20:53:54.237Z,7.50
2022-11-05T20:56:22.730Z,7.50
2022-11-05T20:58:59.139Z,7.60
2022-11-05T21:01:29.235Z,7.60
2022-11-05T21:03:56.050Z,7.60
2022-11-05T21:06:25.101Z,7.60
2022-11-05T21:08:54.251Z,7.50
2022-11-05T21:11:21.192Z,7.50
2022-11-05T21:13:50.103Z,7.40
2022-11-05T21:19:34.234Z,7.40
2022-11-05T21:22:00.981Z,7.40
2022-11-05T21:24:27.641Z,7.30
2022-11-05T21:27:18.236Z,7.30
2022-11-05T21:29:54.118Z,7.20
2022-11-05T21:32:52.193Z,7.30
2022-11-05T21:35:18.790Z,7.20
2022-11-05T21:37:45.400Z,7.20
2022-11-05T21:40:12.024Z,7.20
2022-11-05T21:42:38.662Z,7.20
2022-11-05T21:45:05.623Z,7.10
2022-11-05T21:54:49.161Z,7.00
2022-11-05T21:57:35.164Z,7.00
2022-11-05T22:00:14.013Z,7.00
2022-11-05T22:02:50.638Z,7.00
2022-11-05T22:05:18.330Z,7.00
2022-11-05T22:07:44.990Z,7.00
2022-11-05T22:10:16.191Z,7.00
2022-11-05T22:12:43.989Z,7.00
2022-11-05T22:15:10.772Z,7.00
2022-11-05T22:17:37.479Z,6.90
2022-11-05T22:20:04.432Z,6.90
2022-11-05T22:22:31.025Z,6.90
2022-11-05T22:25:00.161Z,6.80
2022-11-05T22:27:29.192Z,6.80
2022-11-05T22:29:58.352Z,6.80
2022-11-05T22:32:27.473Z,6.90
2022-11-05T22:34:54.043Z,6.80
2022-11-05T22:37:20.900Z,6.80
2022-11-05T22:39:52.529Z,6.70
2022-11-05T22:42:21.586Z,6.70
2022-11-05T22:44:48.250Z,6.60
2022-11-05T22:47:14.975Z,6.60
2022-11-05T22:49:43.832Z,6.60
2022-11-05T22:52:12.897Z,6.70
2022-11-05T22:54:42.089Z,6.60
2022-11-05T22:57:08.722Z,6.60
2022-11-05T22:59:35.477Z,6.60
2022-11-05T23:02:08.201Z,6.60
2022-11-05T23:04:38.916Z,6.60
2022-11-05T23:07:44.085Z,6.60
2022-11-05T23:10:29.082Z,6.60
2022-11-05T23:13:00.363Z,6.50
2022-11-05T23:15:45.596Z,6.50
2022-11-05T23:18:30.677Z,6.50
2022-11-05T23:21:19.264Z,6.50
2022-11-05T23:24:06.941Z,6.50
2022-11-05T23:26:49.737Z,6.60
2022-11-05T23:29:23.713Z,6.60
2022-11-05T23:32:09.041Z,6.50
2022-11-05T23:34:38.154Z,6.50
2022-11-05T23:37:23.533Z,6.30
2022-11-05T23:39:52.499Z,6.30
2022-11-05T23:42:37.968Z,6.30
2022-11-05T23:45:23.363Z,6.30
2022-11-05T23:48:08.393Z,6.30
2022-11-05T23:50:39.507Z,6.30
2022-11-05T23:53:11.494Z,6.30
2022-11-05T23:55:38.199Z,6.20
2022-11-05T23:58:05.067Z,6.30
